createdAt,value
2018-11-23T00:02:19.726Z,0.60
2018-11-23T00:05:08.547Z,0.60
2018-11-23T00:07:58.303Z,0.60
2018-11-23T00:10:47.256Z,0.60
2018-11-23T00:13:36.092Z,0.60
2018-11-23T00:16:25.388Z,0.60
2018-11-23T00:18:55.390Z,0.60
2018-11-23T00:21:25.824Z,0.60
2018-11-23T00:27:09.432Z,0.60
2018-11-23T00:29:58.333Z,0.50
2018-11-23T00:32:47.660Z,0.50
2018-11-23T00:35:55.353Z,0.50
2018-11-23T00:38:25.737Z,0.50
2018-11-23T00:41:14.667Z,0.50
2018-11-23T00:44:05.965Z,0.40
2018-11-23T00:52:33.061Z,1.10
2018-11-23T00:55:22.766Z,0.30
2018-11-23T00:58:11.965Z,0.30
2018-11-23T01:01:00.978Z,0.30
2018-11-23T01:03:50.314Z,0.20
2018-11-23T01:06:39.178Z,0.20
2018-11-23T01:09:28.560Z,0.20
2018-11-23T01:12:17.927Z,0.10
2018-11-23T01:15:06.916Z,0.10
2018-11-23T01:17:56.028Z,0.20
2018-11-23T01:20:45.856Z,0.10
2018-11-23T01:23:35.054Z,0.10
2018-11-23T01:26:25.944Z,0.00
2018-11-23T01:35:19.287Z,-0.10
2018-11-23T01:38:09.044Z,-0.20
2018-11-23T01:40:57.958Z,-0.20
2018-11-23T01:43:48.225Z,-0.30
2018-11-23T01:46:37.123Z,-0.30
2018-11-23T01:49:27.425Z,-0.20
2018-11-23T01:52:16.616Z,-0.20
2018-11-23T01:55:05.752Z,-0.10
2018-11-23T01:57:35.710Z,-0.10
2018-11-23T02:00:06.138Z,0.00
2018-11-23T02:05:47.490Z,0.00
2018-11-23T02:08:36.438Z,0.00
2018-11-23T02:11:25.768Z,0.00
2018-11-23T02:14:14.666Z,0.00
2018-11-23T02:17:04.785Z,0.10
2018-11-23T02:19:55.654Z,0.10
2018-11-23T02:22:44.426Z,0.10
2018-11-23T02:25:34.935Z,0.10
2018-11-23T02:28:26.216Z,0.10
2018-11-23T02:30:56.989Z,0.10
2018-11-23T02:39:23.002Z,0.80
2018-11-23T02:42:11.981Z,0.10
2018-11-23T02:45:01.045Z,0.10
2018-11-23T02:47:50.181Z,0.10
2018-11-23T02:50:40.348Z,0.10
2018-11-23T02:53:29.310Z,0.10
2018-11-23T02:56:19.156Z,0.10
2018-11-23T02:59:11.350Z,0.10
2018-11-23T03:02:00.317Z,0.10
2018-11-23T03:04:50.121Z,0.10
2018-11-23T03:07:39.096Z,0.10
2018-11-23T03:10:30.279Z,0.00
2018-11-23T03:13:19.218Z,0.00
2018-11-23T03:16:09.609Z,-0.10
2018-11-23T03:18:58.508Z,-0.10
2018-11-23T03:21:47.405Z,-0.10
2018-11-23T03:24:36.302Z,-0.10
2018-11-23T03:27:25.439Z,-0.10
2018-11-23T03:30:33.262Z,-0.10
2018-11-23T03:33:23.718Z,-0.20
2018-11-23T03:36:13.073Z,-0.30
2018-11-23T03:39:01.901Z,-0.20
2018-11-23T03:41:52.271Z,-0.30
2018-11-23T03:44:41.219Z,-0.40
2018-11-23T03:47:30.168Z,-0.50
2018-11-23T03:50:19.293Z,-0.50
2018-11-23T03:53:09.070Z,-0.40
2018-11-23T03:55:58.021Z,-0.50
2018-11-23T03:58:47.266Z,-0.50
2018-11-23T04:01:36.099Z,-0.50
2018-11-23T04:04:25.126Z,-0.50
2018-11-23T04:10:23.356Z,-0.50
2018-11-23T04:13:13.409Z,-0.50
2018-11-23T04:21:43.110Z,0.40
2018-11-23T04:24:13.549Z,-0.30
2018-11-23T04:27:03.906Z,-0.30
2018-11-23T04:29:52.792Z,-0.30
2018-11-23T04:35:38.131Z,-0.30
2018-11-23T04:38:27.883Z,-0.40
2018-11-23T04:44:14.004Z,-0.30
2018-11-23T04:47:03.390Z,-0.30
2018-11-23T04:49:53.093Z,-0.30
2018-11-23T04:52:41.927Z,-0.30
2018-11-23T04:55:31.808Z,-0.30
2018-11-23T04:58:21.093Z,-0.20
2018-11-23T05:01:10.339Z,-0.20
2018-11-23T05:04:00.201Z,-0.20
2018-11-23T05:06:50.045Z,-0.20
2018-11-23T05:09:39.723Z,-0.20
2018-11-23T05:12:47.690Z,-0.20
2018-11-23T05:15:36.542Z,-0.20
2018-11-23T05:18:26.297Z,-0.20
2018-11-23T05:21:15.675Z,-0.10
2018-11-23T05:23:45.949Z,-0.20
2018-11-23T05:26:34.903Z,-0.20
2018-11-23T05:29:23.764Z,-0.20
2018-11-23T05:32:13.525Z,-0.20
2018-11-23T05:37:38.728Z,-0.30
2018-11-23T05:40:27.521Z,-0.30
2018-11-23T05:43:16.392Z,-0.40
2018-11-23T05:46:05.355Z,-0.40
2018-11-23T05:48:38.218Z,-0.40
2018-11-23T05:51:08.224Z,-0.40
2018-11-23T05:59:35.663Z,0.30
2018-11-23T06:02:05.772Z,-0.40
2018-11-23T06:04:55.082Z,-0.40
2018-11-23T06:07:45.031Z,-0.50
2018-11-23T06:10:33.812Z,-0.50
2018-11-23T06:13:22.667Z,-0.50
2018-11-23T06:16:12.054Z,-0.40
2018-11-23T06:19:01.049Z,-0.40
2018-11-23T06:21:50.016Z,-0.40
2018-11-23T06:24:38.873Z,-0.40
2018-11-23T06:27:27.876Z,-0.50
2018-11-23T06:30:16.870Z,-0.40
2018-11-23T06:33:25.051Z,-0.50
2018-11-23T06:36:14.237Z,-0.50
2018-11-23T06:39:03.567Z,-0.50
2018-11-23T06:41:52.376Z,-0.40
2018-11-23T06:44:41.212Z,-0.50
2018-11-23T06:47:32.635Z,-0.40
2018-11-23T06:50:24.187Z,-0.40
2018-11-23T06:53:13.053Z,-0.40
2018-11-23T06:56:02.862Z,-0.40
2018-11-23T06:58:52.330Z,-0.40
2018-11-23T07:01:41.127Z,-0.40
2018-11-23T07:04:30.014Z,-0.40
2018-11-23T07:07:19.497Z,-0.30
2018-11-23T07:10:08.855Z,-0.30
2018-11-23T07:12:58.133Z,-0.30
2018-11-23T07:15:46.956Z,-0.30
2018-11-23T07:18:36.779Z,-0.30
2018-11-23T07:21:25.713Z,-0.40
2018-11-23T07:24:14.637Z,-0.40
2018-11-23T07:27:03.496Z,-0.40
2018-11-23T07:29:52.391Z,-0.50
2018-11-23T07:32:42.294Z,-0.50
2018-11-23T07:35:31.226Z,-0.50
2018-11-23T07:38:20.116Z,-0.40
2018-11-23T07:41:28.216Z,-0.20
2018-11-23T07:44:17.053Z,-0.10
2018-11-23T07:47:05.808Z,0.10
2018-11-23T07:49:36.898Z,0.20
2018-11-23T07:52:25.726Z,0.30
2018-11-23T07:55:14.809Z,0.40
2018-11-23T07:57:56.374Z,0.40
2018-11-23T08:00:37.650Z,0.50
2018-11-23T08:03:18.450Z,0.60
2018-11-23T08:05:59.912Z,0.70
2018-11-23T08:08:40.819Z,0.90
2018-11-23T08:11:22.940Z,0.90
2018-11-23T08:14:04.986Z,1.00
2018-11-23T08:16:47.126Z,1.10
2018-11-23T08:19:28.774Z,1.20
2018-11-23T08:22:10.303Z,1.30
2018-11-23T08:24:51.686Z,1.40
2018-11-23T08:27:32.658Z,1.40
2018-11-23T08:30:14.812Z,1.50
2018-11-23T08:32:56.557Z,1.60
2018-11-23T08:38:22.531Z,1.70
2018-11-23T08:40:53.439Z,1.70
2018-11-23T08:43:42.199Z,1.80
2018-11-23T08:46:30.956Z,1.80
2018-11-23T08:49:20.215Z,1.90
2018-11-23T08:52:09.051Z,1.90
2018-11-23T08:54:58.352Z,2.00
2018-11-23T08:57:47.544Z,2.10
2018-11-23T09:00:36.345Z,2.10
2018-11-23T09:09:21.697Z,2.30
2018-11-23T09:12:10.837Z,2.50
2018-11-23T09:15:00.060Z,2.70
2018-11-23T10:42:15.370Z,5.30
2018-11-23T10:44:45.280Z,5.50
2018-11-23T10:47:34.073Z,5.50
2018-11-23T10:50:24.104Z,5.60
2018-11-23T10:53:14.791Z,5.70
2018-11-23T10:56:03.537Z,5.70
2018-11-23T10:58:53.038Z,5.80
2018-11-23T11:02:00.467Z,5.90
2018-11-23T11:05:07.895Z,5.90
2018-11-23T11:07:58.187Z,5.90
2018-11-23T11:10:46.988Z,6.00
2018-11-23T11:13:17.807Z,6.10
2018-11-23T11:16:06.714Z,6.20
2018-11-23T11:18:55.463Z,6.30
2018-11-23T11:21:44.357Z,6.40
2018-11-23T11:24:33.474Z,6.40
2018-11-23T17:17:31.650Z,4.10
2018-11-23T17:20:21.795Z,4.10
2018-11-23T17:23:11.883Z,4.00
2018-11-23T17:31:39.704Z,4.60
2018-11-23T17:34:28.514Z,3.90
2018-11-23T17:40:16.419Z,3.80
2018-11-23T17:43:05.235Z,3.70
2018-11-23T17:45:35.386Z,3.70
2018-11-23T17:48:24.296Z,3.60
2018-11-23T17:51:13.448Z,3.60
2018-11-23T17:54:02.264Z,3.60
2018-11-23T17:56:51.533Z,3.50
2018-11-23T17:59:59.032Z,3.50
2018-11-23T18:02:48.892Z,3.50
2018-11-23T18:05:38.164Z,3.50
2018-11-23T18:08:27.306Z,3.40
2018-11-23T18:11:16.157Z,3.40
2018-11-23T18:14:06.362Z,3.30
2018-11-23T18:16:55.643Z,3.30
2018-11-23T18:20:03.412Z,3.40
2018-11-23T18:22:53.254Z,3.30
2018-11-23T18:25:43.777Z,3.30
2018-11-23T18:28:51.766Z,3.30
2018-11-23T18:31:40.932Z,3.20
2018-11-23T18:34:30.072Z,3.20
2018-11-23T18:37:19.930Z,3.20
2018-11-23T18:40:09.516Z,3.20
2018-11-23T18:42:58.285Z,3.20
2018-11-23T18:49:02.927Z,3.20
2018-11-23T19:00:23.427Z,3.20
2018-11-23T19:03:12.261Z,3.20
2018-11-23T19:06:08.651Z,3.20
2018-11-23T19:08:58.485Z,3.20
2018-11-23T19:11:47.377Z,3.20
2018-11-23T19:14:37.228Z,3.10
2018-11-23T19:17:26.188Z,3.20
2018-11-23T19:20:18.225Z,3.10
2018-11-23T19:23:08.179Z,3.20
2018-11-23T19:25:57.103Z,3.10
2018-11-23T19:28:46.354Z,3.20
2018-11-23T19:31:37.294Z,3.20
2018-11-23T19:34:27.001Z,3.20
2018-11-23T19:37:15.970Z,3.20
2018-11-23T19:39:46.251Z,3.20
2018-11-23T19:42:35.059Z,3.10
2018-11-23T19:45:24.141Z,3.10
2018-11-23T19:48:13.283Z,3.10
2018-11-23T19:51:21.375Z,3.10
2018-11-23T19:54:10.209Z,3.10
2018-11-23T19:56:59.260Z,3.10
2018-11-23T19:59:48.217Z,3.10
2018-11-23T20:02:38.140Z,3.10
2018-11-23T20:05:26.900Z,3.10
2018-11-23T20:08:16.750Z,3.00
2018-11-23T20:11:05.635Z,3.00
2018-11-23T20:13:54.460Z,3.00
2018-11-23T20:16:43.330Z,3.00
2018-11-23T20:19:33.118Z,3.00
2018-11-23T20:22:22.851Z,3.00
2018-11-23T20:25:12.774Z,3.00
2018-11-23T20:28:01.771Z,3.00
2018-11-23T20:33:50.422Z,3.00
2018-11-23T20:36:40.713Z,3.00
2018-11-23T20:39:29.517Z,3.00
2018-11-23T20:42:18.340Z,3.00
2018-11-23T20:45:10.361Z,3.00
2018-11-23T20:47:59.485Z,3.00
2018-11-23T20:50:49.444Z,3.10
2018-11-23T20:53:38.313Z,3.10
2018-11-23T20:56:27.202Z,3.00
2018-11-23T20:59:16.069Z,3.10
2018-11-23T21:02:04.933Z,3.00
2018-11-23T21:04:53.766Z,3.00
2018-11-23T21:07:24.278Z,3.00
2018-11-23T21:10:32.042Z,3.00
2018-11-23T21:13:20.957Z,3.00
2018-11-23T21:16:09.707Z,3.10
2018-11-23T21:27:07.218Z,3.00
2018-11-23T21:29:57.062Z,3.00
2018-11-23T21:32:46.396Z,3.00
2018-11-23T21:35:35.205Z,3.00
2018-11-23T21:38:24.108Z,3.00
2018-11-23T21:41:12.963Z,3.10
2018-11-23T21:44:01.874Z,3.00
2018-11-23T21:46:51.153Z,3.10
2018-11-23T21:49:40.067Z,3.10
2018-11-23T21:52:28.957Z,3.10
2018-11-23T21:55:21.390Z,3.10
2018-11-23T21:58:11.997Z,3.10
2018-11-23T22:01:00.806Z,3.10
2018-11-23T22:07:03.217Z,3.00
2018-11-23T22:09:52.051Z,3.10
2018-11-23T22:12:41.359Z,3.10
2018-11-23T22:15:31.175Z,3.00
2018-11-23T22:18:20.489Z,3.10
2018-11-23T22:21:10.221Z,3.00
2018-11-23T22:23:40.714Z,3.00
2018-11-23T22:30:33.890Z,3.00
2018-11-23T22:33:22.999Z,3.00
2018-11-23T22:36:11.885Z,3.00
2018-11-23T22:39:01.359Z,3.00
2018-11-23T22:41:50.257Z,3.00
2018-11-23T22:44:39.060Z,3.00
2018-11-23T22:47:28.399Z,3.00
2018-11-23T22:50:19.122Z,3.00
2018-11-23T22:53:08.001Z,3.00
2018-11-23T22:55:39.148Z,3.00
2018-11-23T22:58:28.031Z,3.00
2018-11-23T23:01:16.862Z,3.00
2018-11-23T23:04:05.930Z,2.90
2018-11-23T23:07:13.757Z,2.90
2018-11-23T23:10:02.969Z,3.00
2018-11-23T23:12:52.294Z,3.00
2018-11-23T23:15:41.348Z,3.00
2018-11-23T23:18:30.154Z,3.00
2018-11-23T23:21:19.009Z,3.10
2018-11-23T23:24:11.892Z,3.10
2018-11-23T23:26:58.146Z,3.10
2018-11-23T23:29:47.865Z,3.20
2018-11-23T23:32:37.712Z,3.20
2018-11-23T23:35:27.532Z,3.20
2018-11-23T23:38:16.456Z,3.20
2018-11-23T23:41:06.317Z,3.20
2018-11-23T23:43:55.276Z,3.30
2018-11-23T23:46:44.099Z,3.30
2018-11-23T23:49:33.423Z,3.30
2018-11-23T23:52:22.891Z,3.30
2018-11-23T23:55:11.842Z,3.30
2018-11-23T23:58:00.769Z,3.30
